sensor_id;sensor_type;location;lat;lon;timestamp;temperature;humidity
3208;DHT22;1616;52.394;9.756;2023-01-15T00:00:41;10.20;1.90
3208;DHT22;1616;52.394;9.756;2023-01-15T00:03:07;10.10;2.00
3208;DHT22;1616;52.394;9.756;2023-01-15T00:05:35;9.90;2.60
3208;DHT22;1616;52.394;9.756;2023-01-15T00:08:01;9.70;2.60
3208;DHT22;1616;52.394;9.756;2023-01-15T00:10:27;9.60;3.60
3208;DHT22;1616;52.394;9.756;2023-01-15T00:12:53;9.40;3.30
3208;DHT22;1616;52.394;9.756;2023-01-15T00:15:19;9.30;3.20
3208;DHT22;1616;52.394;9.756;2023-01-15T00:17:44;9.30;4.00
3208;DHT22;1616;52.394;9.756;2023-01-15T00:20:10;9.20;3.50
3208;DHT22;1616;52.394;9.756;2023-01-15T00:22:36;9.10;3.40
3208;DHT22;1616;52.394;9.756;2023-01-15T00:25:02;8.90;3.70
3208;DHT22;1616;52.394;9.756;2023-01-15T00:27:46;10.40;3.50
3208;DHT22;1616;52.394;9.756;2023-01-15T00:30:14;8.70;3.10
3208;DHT22;1616;52.394;9.756;2023-01-15T00:32:41;8.60;4.30
3208;DHT22;1616;52.394;9.756;2023-01-15T00:35:14;8.50;3.60
3208;DHT22;1616;52.394;9.756;2023-01-15T00:37:40;8.50;3.70
3208;DHT22;1616;52.394;9.756;2023-01-15T00:40:06;8.40;2.90
3208;DHT22;1616;52.394;9.756;2023-01-15T00:42:31;8.20;2.90
3208;DHT22;1616;52.394;9.756;2023-01-15T00:44:57;8.20;2.90
3208;DHT22;1616;52.394;9.756;2023-01-15T00:47:22;8.00;3.30
3208;DHT22;1616;52.394;9.756;2023-01-15T00:49:48;8.00;3.30
3208;DHT22;1616;52.394;9.756;2023-01-15T00:52:15;7.90;3.30
3208;DHT22;1616;52.394;9.756;2023-01-15T00:54:42;7.90;3.30
3208;DHT22;1616;52.394;9.756;2023-01-15T00:57:08;7.80;3.20
3208;DHT22;1616;52.394;9.756;2023-01-15T00:59:36;7.70;3.10
3208;DHT22;1616;52.394;9.756;2023-01-15T01:02:01;7.60;3.10
3208;DHT22;1616;52.394;9.756;2023-01-15T01:04:27;7.50;3.00
3208;DHT22;1616;52.394;9.756;2023-01-15T01:06:52;7.40;2.50
3208;DHT22;1616;52.394;9.756;2023-01-15T01:09:18;7.40;3.00
3208;DHT22;1616;52.394;9.756;2023-01-15T01:11:44;7.40;3.00
3208;DHT22;1616;52.394;9.756;2023-01-15T01:14:10;7.20;2.80
3208;DHT22;1616;52.394;9.756;2023-01-15T01:16:38;7.20;3.20
3208;DHT22;1616;52.394;9.756;2023-01-15T01:19:24;7.10;2.90
3208;DHT22;1616;52.394;9.756;2023-01-15T01:21:51;7.10;2.80
3208;DHT22;1616;52.394;9.756;2023-01-15T01:24:20;7.00;2.70
3208;DHT22;1616;52.394;9.756;2023-01-15T01:26:47;7.00;2.70
3208;DHT22;1616;52.394;9.756;2023-01-15T01:29:18;6.90;2.70
3208;DHT22;1616;52.394;9.756;2023-01-15T01:31:44;6.90;2.60
3208;DHT22;1616;52.394;9.756;2023-01-15T01:34:10;6.80;3.40
3208;DHT22;1616;52.394;9.756;2023-01-15T01:36:38;6.80;2.60
3208;DHT22;1616;52.394;9.756;2023-01-15T01:39:05;6.70;2.50
3208;DHT22;1616;52.394;9.756;2023-01-15T01:41:31;6.80;2.60
3208;DHT22;1616;52.394;9.756;2023-01-15T01:44:04;6.70;2.90
3208;DHT22;1616;52.394;9.756;2023-01-15T01:46:32;6.70;2.70
3208;DHT22;1616;52.394;9.756;2023-01-15T01:49:08;6.70;3.00
3208;DHT22;1616;52.394;9.756;2023-01-15T01:51:41;6.50;2.40
3208;DHT22;1616;52.394;9.756;2023-01-15T01:54:09;6.60;2.40
3208;DHT22;1616;52.394;9.756;2023-01-15T01:56:35;6.50;2.40
3208;DHT22;1616;52.394;9.756;2023-01-15T01:59:03;6.40;2.00
3208;DHT22;1616;52.394;9.756;2023-01-15T02:01:29;6.50;2.40
3208;DHT22;1616;52.394;9.756;2023-01-15T02:03:55;6.40;2.40
3208;DHT22;1616;52.394;9.756;2023-01-15T02:06:22;6.40;2.30
3208;DHT22;1616;52.394;9.756;2023-01-15T02:08:48;6.40;2.30
3208;DHT22;1616;52.394;9.756;2023-01-15T02:11:20;6.30;1.80
3208;DHT22;1616;52.394;9.756;2023-01-15T02:13:53;6.20;1.50
3208;DHT22;1616;52.394;9.756;2023-01-15T02:16:45;6.20;2.20
3208;DHT22;1616;52.394;9.756;2023-01-15T02:19:29;6.20;2.20
3208;DHT22;1616;52.394;9.756;2023-01-15T02:27:28;6.10;2.10
3208;DHT22;1616;52.394;9.756;2023-01-15T02:30:03;6.10;2.20
3208;DHT22;1616;52.394;9.756;2023-01-15T02:32:34;6.10;2.40
3208;DHT22;1616;52.394;9.756;2023-01-15T02:35:15;6.10;2.10
3208;DHT22;1616;52.394;9.756;2023-01-15T02:37:45;6.10;2.20
3208;DHT22;1616;52.394;9.756;2023-01-15T02:40:14;6.10;2.10
3208;DHT22;1616;52.394;9.756;2023-01-15T02:42:40;6.10;2.10
3208;DHT22;1616;52.394;9.756;2023-01-15T02:45:09;6.10;1.90
3208;DHT22;1616;52.394;9.756;2023-01-15T02:47:37;5.60;1.50
3208;DHT22;1616;52.394;9.756;2023-01-15T02:50:08;6.20;1.80
3208;DHT22;1616;52.394;9.756;2023-01-15T02:52:42;6.20;1.60
3208;DHT22;1616;52.394;9.756;2023-01-15T02:55:16;6.20;1.20
3208;DHT22;1616;52.394;9.756;2023-01-15T02:57:45;6.20;1.30
3208;DHT22;1616;52.394;9.756;2023-01-15T03:00:13;6.20;1.00
3208;DHT22;1616;52.394;9.756;2023-01-15T03:02:54;6.20;1.00
3208;DHT22;1616;52.394;9.756;2023-01-15T03:05:27;6.20;1.00
3208;DHT22;1616;52.394;9.756;2023-01-15T03:07:57;6.30;1.00
3208;DHT22;1616;52.394;9.756;2023-01-15T03:10:54;6.30;1.00
3208;DHT22;1616;52.394;9.756;2023-01-15T03:13:28;6.30;1.00
3208;DHT22;1616;52.394;9.756;2023-01-15T03:16:08;6.30;1.00
3208;DHT22;1616;52.394;9.756;2023-01-15T03:21:57;6.90;1.00
3208;DHT22;1616;52.394;9.756;2023-01-15T03:24:31;6.50;1.00
3208;DHT22;1616;52.394;9.756;2023-01-15T03:26:57;6.40;1.00
3208;DHT22;1616;52.394;9.756;2023-01-15T03:29:27;6.40;1.00
3208;DHT22;1616;52.394;9.756;2023-01-15T03:31:54;6.40;1.00
3208;DHT22;1616;52.394;9.756;2023-01-15T03:34:20;6.50;1.00
3208;DHT22;1616;52.394;9.756;2023-01-15T03:36:45;6.50;1.00
3208;DHT22;1616;52.394;9.756;2023-01-15T03:39:11;6.40;1.00
3208;DHT22;1616;52.394;9.756;2023-01-15T03:41:51;6.60;1.00
3208;DHT22;1616;52.394;9.756;2023-01-15T03:44:26;6.60;1.00
3208;DHT22;1616;52.394;9.756;2023-01-15T03:50:15;6.70;1.00
3208;DHT22;1616;52.394;9.756;2023-01-15T03:53:48;6.70;1.00
3208;DHT22;1616;52.394;9.756;2023-01-15T03:56:13;6.70;1.00
3208;DHT22;1616;52.394;9.756;2023-01-15T03:58:49;6.70;1.00
3208;DHT22;1616;52.394;9.756;2023-01-15T04:01:20;6.70;1.00
3208;DHT22;1616;52.394;9.756;2023-01-15T04:03:50;6.70;1.00
3208;DHT22;1616;52.394;9.756;2023-01-15T04:06:17;6.70;1.00
3208;DHT22;1616;52.394;9.756;2023-01-15T04:08:44;6.80;1.00
3208;DHT22;1616;52.394;9.756;2023-01-15T04:11:10;6.80;1.00
3208;DHT22;1616;52.394;9.756;2023-01-15T04:13:35;6.80;1.00
3208;DHT22;1616;52.394;9.756;2023-01-15T04:16:01;6.80;1.00
3208;DHT22;1616;52.394;9.756;2023-01-15T04:18:27;6.70;1.00
3208;DHT22;1616;52.394;9.756;2023-01-15T04:20:52;6.90;1.00
3208;DHT22;1616;52.394;9.756;2023-01-15T04:23:22;6.90;1.00
3208;DHT22;1616;52.394;9.756;2023-01-15T04:25:47;6.90;1.00
3208;DHT22;1616;52.394;9.756;2023-01-15T04:28:13;6.90;1.00
3208;DHT22;1616;52.394;9.756;2023-01-15T04:30:39;6.90;1.00
3208;DHT22;1616;52.394;9.756;2023-01-15T04:33:07;6.90;1.00
3208;DHT22;1616;52.394;9.756;2023-01-15T04:35:33;6.90;1.00
3208;DHT22;1616;52.394;9.756;2023-01-15T04:38:00;6.90;1.00
3208;DHT22;1616;52.394;9.756;2023-01-15T04:40:27;7.00;1.00
3208;DHT22;1616;52.394;9.756;2023-01-15T04:43:12;6.90;1.00
3208;DHT22;1616;52.394;9.756;2023-01-15T04:45:57;6.90;1.00
3208;DHT22;1616;52.394;9.756;2023-01-15T04:48:23;6.90;1.00
3208;DHT22;1616;52.394;9.756;2023-01-15T04:50:49;6.90;1.00
3208;DHT22;1616;52.394;9.756;2023-01-15T04:53:15;6.90;1.00
3208;DHT22;1616;52.394;9.756;2023-01-15T04:55:40;6.90;1.00
3208;DHT22;1616;52.394;9.756;2023-01-15T04:58:06;6.90;1.00
3208;DHT22;1616;52.394;9.756;2023-01-15T05:00:32;6.90;1.00
3208;DHT22;1616;52.394;9.756;2023-01-15T05:02:57;6.90;1.00
3208;DHT22;1616;52.394;9.756;2023-01-15T05:05:23;6.90;1.00
3208;DHT22;1616;52.394;9.756;2023-01-15T05:07:49;6.90;1.00
3208;DHT22;1616;52.394;9.756;2023-01-15T05:10:15;6.90;1.00
3208;DHT22;1616;52.394;9.756;2023-01-15T05:12:40;6.80;1.00
3208;DHT22;1616;52.394;9.756;2023-01-15T05:15:06;6.80;1.00
3208;DHT22;1616;52.394;9.756;2023-01-15T05:17:32;6.80;1.00
3208;DHT22;1616;52.394;9.756;2023-01-15T05:19:58;6.80;1.00
3208;DHT22;1616;52.394;9.756;2023-01-15T05:22:24;6.20;1.00
3208;DHT22;1616;52.394;9.756;2023-01-15T05:24:50;6.80;1.00
3208;DHT22;1616;52.394;9.756;2023-01-15T05:27:16;6.90;1.00
3208;DHT22;1616;52.394;9.756;2023-01-15T05:29:42;6.90;1.00
3208;DHT22;1616;52.394;9.756;2023-01-15T05:32:08;6.90;1.00
3208;DHT22;1616;52.394;9.756;2023-01-15T05:34:34;6.90;1.00
3208;DHT22;1616;52.394;9.756;2023-01-15T05:36:59;6.90;1.00
3208;DHT22;1616;52.394;9.756;2023-01-15T05:39:25;6.90;1.00
3208;DHT22;1616;52.394;9.756;2023-01-15T05:41:50;6.80;1.00
3208;DHT22;1616;52.394;9.756;2023-01-15T05:46:45;6.90;1.00
3208;DHT22;1616;52.394;9.756;2023-01-15T05:49:14;6.90;1.00
3208;DHT22;1616;52.394;9.756;2023-01-15T05:51:40;6.90;1.00
3208;DHT22;1616;52.394;9.756;2023-01-15T05:54:08;6.90;1.00
3208;DHT22;1616;52.394;9.756;2023-01-15T05:56:36;6.90;1.00
3208;DHT22;1616;52.394;9.756;2023-01-15T05:59:02;6.90;1.00
3208;DHT22;1616;52.394;9.756;2023-01-15T06:01:28;6.90;1.00
3208;DHT22;1616;52.394;9.756;2023-01-15T06:03:57;6.90;1.00
3208;DHT22;1616;52.394;9.756;2023-01-15T06:06:23;6.90;1.00
3208;DHT22;1616;52.394;9.756;2023-01-15T06:08:48;7.00;1.00
3208;DHT22;1616;52.394;9.756;2023-01-15T06:11:14;6.90;1.00
3208;DHT22;1616;52.394;9.756;2023-01-15T06:13:39;7.00;1.00
3208;DHT22;1616;52.394;9.756;2023-01-15T06:16:06;6.90;1.00
3208;DHT22;1616;52.394;9.756;2023-01-15T06:18:32;7.00;1.00
3208;DHT22;1616;52.394;9.756;2023-01-15T06:21:06;7.00;1.00
3208;DHT22;1616;52.394;9.756;2023-01-15T06:23:33;6.90;1.00
3208;DHT22;1616;52.394;9.756;2023-01-15T06:26:03;7.00;1.00
3208;DHT22;1616;52.394;9.756;2023-01-15T06:28:28;7.10;1.00
3208;DHT22;1616;52.394;9.756;2023-01-15T06:30:54;7.00;1.00
3208;DHT22;1616;52.394;9.756;2023-01-15T06:33:20;7.10;1.00
3208;DHT22;1616;52.394;9.756;2023-01-15T06:35:46;7.10;1.00
3208;DHT22;1616;52.394;9.756;2023-01-15T06:38:11;7.00;1.00
3208;DHT22;1616;52.394;9.756;2023-01-15T06:40:37;7.00;1.00
3208;DHT22;1616;52.394;9.756;2023-01-15T06:43:02;7.00;1.00
3208;DHT22;1616;52.394;9.756;2023-01-15T06:45:47;7.00;1.00
3208;DHT22;1616;52.394;9.756;2023-01-15T06:48:51;7.00;1.00
3208;DHT22;1616;52.394;9.756;2023-01-15T06:51:18;7.00;1.00
3208;DHT22;1616;52.394;9.756;2023-01-15T06:53:46;7.00;1.00
3208;DHT22;1616;52.394;9.756;2023-01-15T06:56:13;7.00;1.00
3208;DHT22;1616;52.394;9.756;2023-01-15T06:58:43;7.00;1.00
3208;DHT22;1616;52.394;9.756;2023-01-15T07:01:14;7.00;1.00
3208;DHT22;1616;52.394;9.756;2023-01-15T07:03:40;7.00;1.00
3208;DHT22;1616;52.394;9.756;2023-01-15T07:06:10;7.00;1.00
3208;DHT22;1616;52.394;9.756;2023-01-15T07:08:37;7.00;1.00
3208;DHT22;1616;52.394;9.756;2023-01-15T07:11:06;7.00;1.00
3208;DHT22;1616;52.394;9.756;2023-01-15T07:13:32;7.00;1.00
3208;DHT22;1616;52.394;9.756;2023-01-15T07:15:59;7.00;1.00
3208;DHT22;1616;52.394;9.756;2023-01-15T07:18:27;7.00;1.00
3208;DHT22;1616;52.394;9.756;2023-01-15T07:20:57;7.00;1.00
3208;DHT22;1616;52.394;9.756;2023-01-15T07:23:24;7.00;1.00
3208;DHT22;1616;52.394;9.756;2023-01-15T07:25:53;7.00;1.00
3208;DHT22;1616;52.394;9.756;2023-01-15T07:28:21;7.00;1.00
3208;DHT22;1616;52.394;9.756;2023-01-15T07:30:47;6.90;1.00
3208;DHT22;1616;52.394;9.756;2023-01-15T07:33:13;7.00;1.00
3208;DHT22;1616;52.394;9.756;2023-01-15T07:35:39;7.00;1.00
3208;DHT22;1616;52.394;9.756;2023-01-15T07:38:04;7.00;1.00
3208;DHT22;1616;52.394;9.756;2023-01-15T07:40:30;7.00;1.00
3208;DHT22;1616;52.394;9.756;2023-01-15T07:42:58;7.00;1.00
3208;DHT22;1616;52.394;9.756;2023-01-15T07:45:42;7.00;1.00
3208;DHT22;1616;52.394;9.756;2023-01-15T07:48:27;7.00;1.00
3208;DHT22;1616;52.394;9.756;2023-01-15T07:51:12;7.00;1.00
3208;DHT22;1616;52.394;9.756;2023-01-15T07:53:38;7.00;1.00
3208;DHT22;1616;52.394;9.756;2023-01-15T07:56:06;7.00;1.00
3208;DHT22;1616;52.394;9.756;2023-01-15T07:58:32;7.00;1.00
3208;DHT22;1616;52.394;9.756;2023-01-15T08:00:58;7.10;1.00
3208;DHT22;1616;52.394;9.756;2023-01-15T08:03:31;7.10;1.00
3208;DHT22;1616;52.394;9.756;2023-01-15T08:06:00;7.20;1.00
3208;DHT22;1616;52.394;9.756;2023-01-15T08:08:28;7.20;1.00
3208;DHT22;1616;52.394;9.756;2023-01-15T08:10:53;7.20;1.00
3208;DHT22;1616;52.394;9.756;2023-01-15T08:13:39;7.20;1.00
3208;DHT22;1616;52.394;9.756;2023-01-15T08:16:24;7.30;1.00
3208;DHT22;1616;52.394;9.756;2023-01-15T08:18:51;7.20;1.00
3208;DHT22;1616;52.394;9.756;2023-01-15T08:21:16;7.20;1.00
3208;DHT22;1616;52.394;9.756;2023-01-15T08:23:43;7.20;1.00
3208;DHT22;1616;52.394;9.756;2023-01-15T08:26:17;7.30;1.00
3208;DHT22;1616;52.394;9.756;2023-01-15T08:28:43;7.30;1.00
3208;DHT22;1616;52.394;9.756;2023-01-15T08:31:08;7.30;1.00
3208;DHT22;1616;52.394;9.756;2023-01-15T08:33:34;7.20;1.00
3208;DHT22;1616;52.394;9.756;2023-01-15T08:36:00;7.40;1.00
3208;DHT22;1616;52.394;9.756;2023-01-15T08:38:26;7.40;1.00
3208;DHT22;1616;52.394;9.756;2023-01-15T08:40:53;7.40;1.00
3208;DHT22;1616;52.394;9.756;2023-01-15T08:43:29;7.40;1.00
3208;DHT22;1616;52.394;9.756;2023-01-15T08:45:56;7.50;1.00
3208;DHT22;1616;52.394;9.756;2023-01-15T08:48:23;7.50;1.00
3208;DHT22;1616;52.394;9.756;2023-01-15T08:50:49;7.50;1.00
3208;DHT22;1616;52.394;9.756;2023-01-15T08:53:16;7.50;1.00
3208;DHT22;1616;52.394;9.756;2023-01-15T08:55:44;7.50;1.00
3208;DHT22;1616;52.394;9.756;2023-01-15T08:58:10;7.60;1.00
3208;DHT22;1616;52.394;9.756;2023-01-15T09:00:36;7.60;1.00
3208;DHT22;1616;52.394;9.756;2023-01-15T09:03:02;7.60;1.00
3208;DHT22;1616;52.394;9.756;2023-01-15T09:05:28;7.60;1.00
3208;DHT22;1616;52.394;9.756;2023-01-15T09:07:54;7.60;1.00
3208;DHT22;1616;52.394;9.756;2023-01-15T09:10:20;7.60;1.00
3208;DHT22;1616;52.394;9.756;2023-01-15T09:12:49;7.60;1.00
3208;DHT22;1616;52.394;9.756;2023-01-15T09:15:18;7.60;1.00
3208;DHT22;1616;52.394;9.756;2023-01-15T09:17:45;7.60;1.00
3208;DHT22;1616;52.394;9.756;2023-01-15T09:20:12;7.70;1.00
3208;DHT22;1616;52.394;9.756;2023-01-15T09:22:38;7.90;1.00
3208;DHT22;1616;52.394;9.756;2023-01-15T09:25:04;8.00;1.00
3208;DHT22;1616;52.394;9.756;2023-01-15T09:27:30;8.10;1.00
3208;DHT22;1616;52.394;9.756;2023-01-15T09:29:58;8.20;1.00
3208;DHT22;1616;52.394;9.756;2023-01-15T09:32:24;8.50;1.00
3208;DHT22;1616;52.394;9.756;2023-01-15T09:34:52;8.90;1.00
3208;DHT22;1616;52.394;9.756;2023-01-15T09:37:20;9.20;1.00
3208;DHT22;1616;52.394;9.756;2023-01-15T09:39:46;9.30;1.00
3208;DHT22;1616;52.394;9.756;2023-01-15T09:42:47;9.60;1.00
3208;DHT22;1616;52.394;9.756;2023-01-15T09:45:21;9.70;1.00
3208;DHT22;1616;52.394;9.756;2023-01-15T09:54:00;9.60;1.00
3208;DHT22;1616;52.394;9.756;2023-01-15T09:56:32;9.60;1.00
3208;DHT22;1616;52.394;9.756;2023-01-15T09:59:05;9.80;1.00
3208;DHT22;1616;52.394;9.756;2023-01-15T10:01:36;9.90;1.00
3208;DHT22;1616;52.394;9.756;2023-01-15T10:04:18;10.30;1.00
3208;DHT22;1616;52.394;9.756;2023-01-15T10:06:53;10.60;1.00
3208;DHT22;1616;52.394;9.756;2023-01-15T10:09:26;10.90;1.00
3208;DHT22;1616;52.394;9.756;2023-01-15T10:12:06;11.30;1.00
3208;DHT22;1616;52.394;9.756;2023-01-15T10:15:47;12.00;1.00
3208;DHT22;1616;52.394;9.756;2023-01-15T10:17:56;12.70;1.00
3208;DHT22;1616;52.394;9.756;2023-01-15T10:20:41;13.10;1.00
3208;DHT22;1616;52.394;9.756;2023-01-15T10:23:30;13.20;1.00
3208;DHT22;1616;52.394;9.756;2023-01-15T10:29:05;12.90;1.00
3208;DHT22;1616;52.394;9.756;2023-01-15T10:31:48;12.40;1.00
3208;DHT22;1616;52.394;9.756;2023-01-15T10:39:43;10.90;1.00
3208;DHT22;1616;52.394;9.756;2023-01-15T10:42:27;10.60;1.00
3208;DHT22;1616;52.394;9.756;2023-01-15T10:45:23;10.30;1.00
3208;DHT22;1616;52.394;9.756;2023-01-15T10:48:00;10.30;1.00
3208;DHT22;1616;52.394;9.756;2023-01-15T10:50:28;10.50;1.00
3208;DHT22;1616;52.394;9.756;2023-01-15T10:56:02;11.20;1.00
3208;DHT22;1616;52.394;9.756;2023-01-15T10:58:34;11.60;1.00
3208;DHT22;1616;52.394;9.756;2023-01-15T11:01:10;12.10;1.00
3208;DHT22;1616;52.394;9.756;2023-01-15T11:03:40;12.70;1.00
3208;DHT22;1616;52.394;9.756;2023-01-15T11:06:12;13.30;1.00
3208;DHT22;1616;52.394;9.756;2023-01-15T11:08:50;13.60;1.00
3208;DHT22;1616;52.394;9.756;2023-01-15T11:11:25;13.60;1.00
3208;DHT22;1616;52.394;9.756;2023-01-15T11:14:40;13.30;1.00
3208;DHT22;1616;52.394;9.756;2023-01-15T11:17:31;13.20;1.00
3208;DHT22;1616;52.394;9.756;2023-01-15T11:20:31;13.10;1.00
3208;DHT22;1616;52.394;9.756;2023-01-15T11:23:11;13.20;1.00
3208;DHT22;1616;52.394;9.756;2023-01-15T11:25:46;13.20;1.00
3208;DHT22;1616;52.394;9.756;2023-01-15T11:28:12;13.40;1.00
3208;DHT22;1616;52.394;9.756;2023-01-15T11:30:40;13.50;1.00
3208;DHT22;1616;52.394;9.756;2023-01-15T11:33:22;13.60;1.00
3208;DHT22;1616;52.394;9.756;2023-01-15T11:35:55;13.80;1.00
3208;DHT22;1616;52.394;9.756;2023-01-15T11:38:24;13.70;1.00
3208;DHT22;1616;52.394;9.756;2023-01-15T11:40:55;13.30;1.00
3208;DHT22;1616;52.394;9.756;2023-01-15T11:43:24;12.90;1.00
3208;DHT22;1616;52.394;9.756;2023-01-15T11:46:27;12.70;1.00
3208;DHT22;1616;52.394;9.756;2023-01-15T11:49:20;12.30;1.00
3208;DHT22;1616;52.394;9.756;2023-01-15T11:52:10;11.90;1.00
3208;DHT22;1616;52.394;9.756;2023-01-15T11:54:42;11.70;1.00
3208;DHT22;1616;52.394;9.756;2023-01-15T11:57:09;11.50;1.00
3208;DHT22;1616;52.394;9.756;2023-01-15T11:59:36;11.60;1.00
3208;DHT22;1616;52.394;9.756;2023-01-15T12:02:19;11.80;1.00
3208;DHT22;1616;52.394;9.756;2023-01-15T12:04:54;11.90;1.00
3208;DHT22;1616;52.394;9.756;2023-01-15T12:07:24;11.80;1.00
3208;DHT22;1616;52.394;9.756;2023-01-15T12:10:02;11.60;1.00
3208;DHT22;1616;52.394;9.756;2023-01-15T12:13:14;11.40;1.00
3208;DHT22;1616;52.394;9.756;2023-01-15T12:15:37;11.00;1.00
3208;DHT22;1616;52.394;9.756;2023-01-15T12:21:23;10.50;1.00
3208;DHT22;1616;52.394;9.756;2023-01-15T12:23:58;10.20;1.00
3208;DHT22;1616;52.394;9.756;2023-01-15T12:26:33;10.00;1.00
3208;DHT22;1616;52.394;9.756;2023-01-15T12:29:04;9.90;1.00
3208;DHT22;1616;52.394;9.756;2023-01-15T12:31:33;9.90;1.00
3208;DHT22;1616;52.394;9.756;2023-01-15T12:34:23;10.00;1.00
3208;DHT22;1616;52.394;9.756;2023-01-15T12:36:57;9.90;1.00
3208;DHT22;1616;52.394;9.756;2023-01-15T12:39:34;9.90;1.00
3208;DHT22;1616;52.394;9.756;2023-01-15T12:42:04;9.90;1.00
3208;DHT22;1616;52.394;9.756;2023-01-15T12:45:03;9.80;1.00
3208;DHT22;1616;52.394;9.756;2023-01-15T12:48:04;9.70;1.00
3208;DHT22;1616;52.394;9.756;2023-01-15T12:55:39;9.50;1.00
3208;DHT22;1616;52.394;9.756;2023-01-15T12:58:14;9.40;1.00
3208;DHT22;1616;52.394;9.756;2023-01-15T13:00:45;9.30;1.00
3208;DHT22;1616;52.394;9.756;2023-01-15T13:06:01;9.20;1.00
3208;DHT22;1616;52.394;9.756;2023-01-15T13:08:39;9.20;1.00
3208;DHT22;1616;52.394;9.756;2023-01-15T13:11:10;9.20;1.00
3208;DHT22;1616;52.394;9.756;2023-01-15T13:13:39;9.20;1.00
3208;DHT22;1616;52.394;9.756;2023-01-15T13:22:13;9.10;1.00
3208;DHT22;1616;52.394;9.756;2023-01-15T13:27:44;9.00;1.00
3208;DHT22;1616;52.394;9.756;2023-01-15T13:32:51;9.00;1.00
3208;DHT22;1616;52.394;9.756;2023-01-15T13:35:30;8.90;1.00
3208;DHT22;1616;52.394;9.756;2023-01-15T13:37:59;8.90;1.00
3208;DHT22;1616;52.394;9.756;2023-01-15T13:40:29;8.90;1.00
3208;DHT22;1616;52.394;9.756;2023-01-15T13:43:04;8.90;1.00
3208;DHT22;1616;52.394;9.756;2023-01-15T13:45:34;8.90;1.00
3208;DHT22;1616;52.394;9.756;2023-01-15T13:48:13;9.00;1.00
3208;DHT22;1616;52.394;9.756;2023-01-15T13:50:42;9.00;1.00
3208;DHT22;1616;52.394;9.756;2023-01-15T13:53:29;9.00;1.00
3208;DHT22;1616;52.394;9.756;2023-01-15T13:56:04;9.00;1.00
3208;DHT22;1616;52.394;9.756;2023-01-15T13:58:33;9.00;1.00
3208;DHT22;1616;52.394;9.756;2023-01-15T14:06:35;9.10;1.00
3208;DHT22;1616;52.394;9.756;2023-01-15T14:09:00;9.10;1.00
3208;DHT22;1616;52.394;9.756;2023-01-15T14:11:44;9.10;1.00
3208;DHT22;1616;52.394;9.756;2023-01-15T14:17:23;9.10;1.00
3208;DHT22;1616;52.394;9.756;2023-01-15T14:28:42;8.80;1.00
3208;DHT22;1616;52.394;9.756;2023-01-15T14:34:10;8.70;1.00
3208;DHT22;1616;52.394;9.756;2023-01-15T14:36:40;8.70;1.00
3208;DHT22;1616;52.394;9.756;2023-01-15T14:39:23;8.70;1.00
3208;DHT22;1616;52.394;9.756;2023-01-15T14:41:56;8.70;1.00
3208;DHT22;1616;52.394;9.756;2023-01-15T14:44:43;8.60;1.00
3208;DHT22;1616;52.394;9.756;2023-01-15T14:47:20;8.60;1.00
3208;DHT22;1616;52.394;9.756;2023-01-15T14:50:00;8.60;1.00
3208;DHT22;1616;52.394;9.756;2023-01-15T14:52:27;8.60;1.00
3208;DHT22;1616;52.394;9.756;2023-01-15T14:54:53;8.70;1.00
3208;DHT22;1616;52.394;9.756;2023-01-15T14:57:21;8.70;1.00
3208;DHT22;1616;52.394;9.756;2023-01-15T14:59:52;8.60;1.00
3208;DHT22;1616;52.394;9.756;2023-01-15T15:02:23;8.60;1.00
3208;DHT22;1616;52.394;9.756;2023-01-15T15:04:56;8.60;1.00
3208;DHT22;1616;52.394;9.756;2023-01-15T15:07:35;8.60;1.00
3208;DHT22;1616;52.394;9.756;2023-01-15T15:10:17;8.60;1.00
3208;DHT22;1616;52.394;9.756;2023-01-15T15:13:11;8.60;1.00
3208;DHT22;1616;52.394;9.756;2023-01-15T15:18:29;8.60;1.00
3208;DHT22;1616;52.394;9.756;2023-01-15T15:23:49;8.50;1.00
3208;DHT22;1616;52.394;9.756;2023-01-15T15:26:29;8.60;1.00
3208;DHT22;1616;52.394;9.756;2023-01-15T15:29:00;8.60;1.00
3208;DHT22;1616;52.394;9.756;2023-01-15T15:31:28;8.60;1.00
3208;DHT22;1616;52.394;9.756;2023-01-15T15:33:56;8.60;1.00
3208;DHT22;1616;52.394;9.756;2023-01-15T15:36:25;8.60;1.00
3208;DHT22;1616;52.394;9.756;2023-01-15T15:38:53;8.50;1.00
3208;DHT22;1616;52.394;9.756;2023-01-15T15:41:19;8.50;1.00
3208;DHT22;1616;52.394;9.756;2023-01-15T15:44:14;8.50;1.00
3208;DHT22;1616;52.394;9.756;2023-01-15T15:47:14;8.50;1.00
3208;DHT22;1616;52.394;9.756;2023-01-15T15:49:59;8.40;1.00
3208;DHT22;1616;52.394;9.756;2023-01-15T15:52:25;8.30;1.00
3208;DHT22;1616;52.394;9.756;2023-01-15T15:54:59;8.30;1.00
3208;DHT22;1616;52.394;9.756;2023-01-15T15:57:29;8.30;1.00
3208;DHT22;1616;52.394;9.756;2023-01-15T15:59:56;8.30;1.00
3208;DHT22;1616;52.394;9.756;2023-01-15T16:02:38;8.20;1.00
3208;DHT22;1616;52.394;9.756;2023-01-15T16:07:43;8.30;1.00
3208;DHT22;1616;52.394;9.756;2023-01-15T16:10:15;8.30;1.00
3208;DHT22;1616;52.394;9.756;2023-01-15T16:12:53;8.30;1.00
3208;DHT22;1616;52.394;9.756;2023-01-15T16:15:30;8.30;1.00
3208;DHT22;1616;52.394;9.756;2023-01-15T16:17:58;8.30;1.00
3208;DHT22;1616;52.394;9.756;2023-01-15T16:20:25;8.20;1.00
3208;DHT22;1616;52.394;9.756;2023-01-15T16:22:57;8.20;1.00
3208;DHT22;1616;52.394;9.756;2023-01-15T16:25:33;8.20;1.00
3208;DHT22;1616;52.394;9.756;2023-01-15T16:28:00;8.20;1.00
3208;DHT22;1616;52.394;9.756;2023-01-15T16:30:27;8.20;1.00
3208;DHT22;1616;52.394;9.756;2023-01-15T16:32:54;8.30;1.00
3208;DHT22;1616;52.394;9.756;2023-01-15T16:35:24;8.30;1.00
3208;DHT22;1616;52.394;9.756;2023-01-15T16:37:52;8.30;1.00
3208;DHT22;1616;52.394;9.756;2023-01-15T16:40:34;8.30;1.00
3208;DHT22;1616;52.394;9.756;2023-01-15T16:45:35;8.30;1.00
3208;DHT22;1616;52.394;9.756;2023-01-15T16:50:33;8.30;1.00
3208;DHT22;1616;52.394;9.756;2023-01-15T16:53:01;8.30;1.00
3208;DHT22;1616;52.394;9.756;2023-01-15T17:00:38;8.30;1.00
3208;DHT22;1616;52.394;9.756;2023-01-15T17:03:16;8.30;1.00
3208;DHT22;1616;52.394;9.756;2023-01-15T17:05:44;8.30;1.00
3208;DHT22;1616;52.394;9.756;2023-01-15T17:08:15;8.40;1.00
3208;DHT22;1616;52.394;9.756;2023-01-15T17:10:55;8.40;1.00
3208;DHT22;1616;52.394;9.756;2023-01-15T17:13:31;8.40;1.00
3208;DHT22;1616;52.394;9.756;2023-01-15T17:16:05;8.40;1.00
3208;DHT22;1616;52.394;9.756;2023-01-15T17:18:31;8.40;1.00
3208;DHT22;1616;52.394;9.756;2023-01-15T17:20:58;8.50;1.00
3208;DHT22;1616;52.394;9.756;2023-01-15T17:23:27;8.60;1.00
3208;DHT22;1616;52.394;9.756;2023-01-15T17:25:54;8.50;1.00
3208;DHT22;1616;52.394;9.756;2023-01-15T17:28:20;8.60;1.00
3208;DHT22;1616;52.394;9.756;2023-01-15T17:30:50;8.60;1.00
3208;DHT22;1616;52.394;9.756;2023-01-15T17:33:19;8.60;1.00
3208;DHT22;1616;52.394;9.756;2023-01-15T17:35:45;8.60;1.00
3208;DHT22;1616;52.394;9.756;2023-01-15T17:38:14;8.70;1.00
3208;DHT22;1616;52.394;9.756;2023-01-15T17:40:40;8.70;1.00
3208;DHT22;1616;52.394;9.756;2023-01-15T17:43:08;8.70;1.00
3208;DHT22;1616;52.394;9.756;2023-01-15T17:45:34;8.70;1.00
3208;DHT22;1616;52.394;9.756;2023-01-15T17:47:59;8.90;1.00
3208;DHT22;1616;52.394;9.756;2023-01-15T17:50:28;9.00;1.00
3208;DHT22;1616;52.394;9.756;2023-01-15T17:52:54;8.90;1.00
3208;DHT22;1616;52.394;9.756;2023-01-15T17:55:22;8.90;1.00
3208;DHT22;1616;52.394;9.756;2023-01-15T17:58:11;8.80;1.00
3208;DHT22;1616;52.394;9.756;2023-01-15T18:00:56;8.70;1.00
3208;DHT22;1616;52.394;9.756;2023-01-15T18:03:45;8.70;1.00
3208;DHT22;1616;52.394;9.756;2023-01-15T18:06:30;8.70;1.00
3208;DHT22;1616;52.394;9.756;2023-01-15T18:08:59;8.60;1.00
3208;DHT22;1616;52.394;9.756;2023-01-15T18:11:26;8.60;1.00
3208;DHT22;1616;52.394;9.756;2023-01-15T18:13:51;8.60;1.00
3208;DHT22;1616;52.394;9.756;2023-01-15T18:16:17;8.60;1.00
3208;DHT22;1616;52.394;9.756;2023-01-15T18:18:43;8.40;1.00
3208;DHT22;1616;52.394;9.756;2023-01-15T18:21:09;8.50;1.00
3208;DHT22;1616;52.394;9.756;2023-01-15T18:23:35;8.50;1.00
3208;DHT22;1616;52.394;9.756;2023-01-15T18:26:05;8.50;1.00
3208;DHT22;1616;52.394;9.756;2023-01-15T18:28:32;8.50;1.00
3208;DHT22;1616;52.394;9.756;2023-01-15T18:30:59;8.50;1.00
3208;DHT22;1616;52.394;9.756;2023-01-15T18:33:24;8.40;1.00